createdAt,value
2022-10-14T00:02:37.088Z,100518.13
2022-10-14T00:07:40.759Z,100523.88
2022-10-14T00:12:42.476Z,100530.53
2022-10-14T00:17:44.148Z,100546.44
2022-10-14T00:22:45.756Z,100541.47
2022-10-14T00:27:47.325Z,100539.97
2022-10-14T00:32:48.950Z,100526.34
2022-10-14T00:37:50.690Z,100538.56
2022-10-14T00:42:52.440Z,100554.94
2022-10-14T00:47:54.096Z,100554.19
2022-10-14T00:52:56.300Z,100557.31
2022-10-14T00:57:57.940Z,100559.00
2022-10-14T01:02:59.494Z,100544.66
2022-10-14T01:08:18.954Z,100538.56
2022-10-14T01:13:24.328Z,100539.25
2022-10-14T01:18:25.886Z,100534.00
2022-10-14T01:23:55.409Z,100520.88
2022-10-14T01:29:14.519Z,100522.78
2022-10-14T01:34:25.932Z,100513.00
2022-10-14T01:39:33.119Z,100505.84
2022-10-14T01:44:42.048Z,100497.22
2022-10-14T01:50:07.764Z,100494.84
2022-10-14T01:55:15.957Z,100495.72
2022-10-14T02:00:17.887Z,100500.72
2022-10-14T02:05:43.922Z,100493.91
2022-10-14T02:11:04.218Z,100476.22
2022-10-14T02:16:36.877Z,100464.03
2022-10-14T02:21:42.846Z,100456.84
2022-10-14T02:26:46.386Z,100454.06
2022-10-14T02:31:50.986Z,100452.31
2022-10-14T02:36:55.478Z,100460.81
2022-10-14T02:41:58.080Z,100449.72
2022-10-14T02:46:59.643Z,100448.34
2022-10-14T02:52:03.675Z,100436.88
2022-10-14T02:57:05.292Z,100435.59
2022-10-14T03:02:07.650Z,100425.22
2022-10-14T03:07:11.099Z,100426.19
2022-10-14T03:12:18.796Z,100411.25
2022-10-14T03:17:20.978Z,100406.38
2022-10-14T03:22:24.704Z,100396.94
2022-10-14T03:27:26.524Z,100396.47
2022-10-14T03:32:33.994Z,100390.50
2022-10-14T03:37:55.854Z,100391.59
2022-10-14T03:43:04.056Z,100384.66
2022-10-14T03:48:15.732Z,100379.75
2022-10-14T03:53:17.337Z,100381.66
2022-10-14T03:58:19.117Z,100368.59
2022-10-14T04:03:32.154Z,100359.00
2022-10-14T04:08:35.207Z,100361.38
2022-10-14T04:13:49.554Z,100362.34
2022-10-14T04:18:51.185Z,100358.91
2022-10-14T04:23:56.514Z,100341.97
2022-10-14T04:29:10.659Z,100340.50
2022-10-14T04:34:23.036Z,100349.31
2022-10-14T04:39:26.645Z,100337.03
2022-10-14T04:44:28.498Z,100337.81
2022-10-14T04:49:30.253Z,100331.50
2022-10-14T04:54:42.807Z,100318.97
2022-10-14T04:59:44.932Z,100320.72
2022-10-14T05:04:53.579Z,100304.00
2022-10-14T05:09:56.863Z,100299.19
2022-10-14T05:15:14.665Z,100297.88
2022-10-14T05:20:26.732Z,100298.16
2022-10-14T05:25:31.085Z,100294.47
2022-10-14T05:30:34.920Z,100283.19
2022-10-14T05:35:58.054Z,100274.75
2022-10-14T05:41:01.609Z,100271.78
2022-10-14T05:46:03.479Z,100280.00
2022-10-14T05:51:10.443Z,100287.88
2022-10-14T05:56:13.557Z,100285.63
2022-10-14T06:01:15.667Z,100289.72
2022-10-14T06:06:18.306Z,100297.47
2022-10-14T06:11:19.917Z,100293.34
2022-10-14T06:16:21.624Z,100298.47
2022-10-14T06:21:23.365Z,100300.28
2022-10-14T06:26:24.987Z,100306.03
2022-10-14T06:31:31.234Z,100307.53
2022-10-14T06:36:35.127Z,100313.47
2022-10-14T06:41:36.713Z,100316.50
2022-10-14T06:46:38.323Z,100313.50
2022-10-14T06:51:40.568Z,100294.59
2022-10-14T06:56:42.168Z,100286.78
2022-10-14T07:01:43.847Z,100277.59
2022-10-14T07:06:45.366Z,100277.59
2022-10-14T07:11:46.951Z,100280.75
2022-10-14T07:16:48.628Z,100276.25
2022-10-14T07:21:50.225Z,100277.28
2022-10-14T07:26:52.027Z,100269.94
2022-10-14T07:31:53.833Z,100272.19
2022-10-14T07:36:55.395Z,100286.34
2022-10-14T07:41:57.043Z,100287.28
2022-10-14T07:46:59.696Z,100292.44
2022-10-14T07:52:01.404Z,100295.25
2022-10-14T07:57:03.141Z,100290.72
2022-10-14T08:02:05.002Z,100296.50
2022-10-14T08:07:06.616Z,100306.94
2022-10-14T08:12:08.352Z,100299.63
2022-10-14T08:17:09.878Z,100297.47
2022-10-14T08:22:11.579Z,100298.03
2022-10-14T08:27:13.225Z,100301.53
2022-10-14T08:32:15.384Z,100304.81
2022-10-14T08:37:16.992Z,100312.69
2022-10-14T08:42:30.085Z,100310.88
2022-10-14T08:47:37.549Z,100314.25
2022-10-14T08:52:47.058Z,100304.34
2022-10-14T08:57:54.056Z,100295.81
2022-10-14T09:02:58.521Z,100293.34
2022-10-14T09:08:00.770Z,100295.00
2022-10-14T09:13:28.332Z,100293.63
2022-10-14T09:18:39.771Z,100291.69
2022-10-14T09:23:41.288Z,100290.59
2022-10-14T09:28:44.547Z,100280.59
2022-10-14T09:33:46.337Z,100275.63
2022-10-14T09:38:55.453Z,100272.56
2022-10-14T09:44:25.472Z,100266.16
2022-10-14T09:49:47.922Z,100277.22
2022-10-14T09:54:58.745Z,100263.56
2022-10-14T10:00:04.033Z,100262.03
2022-10-14T10:05:27.980Z,100258.75
2022-10-14T10:10:30.870Z,100264.31
2022-10-14T10:15:32.461Z,100268.09
2022-10-14T10:20:34.182Z,100253.47
2022-10-14T10:25:35.740Z,100211.63
2022-10-14T10:31:03.115Z,100195.56
2022-10-14T10:36:29.069Z,100190.03
2022-10-14T10:41:53.365Z,100180.91
2022-10-14T10:47:31.408Z,100162.28
2022-10-14T10:52:47.961Z,100157.44
2022-10-14T10:58:27.618Z,100159.53
2022-10-14T11:03:38.815Z,100149.84
2022-10-14T11:09:12.072Z,100156.59
2022-10-14T11:14:48.572Z,100149.22
2022-10-14T11:20:15.776Z,100140.47
2022-10-14T11:25:44.921Z,100138.00
2022-10-14T11:31:05.067Z,100147.25
2022-10-14T11:36:12.431Z,100147.41
2022-10-14T11:41:25.224Z,100141.78
2022-10-14T11:46:32.710Z,100131.16
2022-10-14T11:51:40.957Z,100118.03
2022-10-14T11:57:05.955Z,100115.31
2022-10-14T12:02:32.024Z,100110.25
2022-10-14T12:07:42.009Z,100110.56
2022-10-14T12:12:43.882Z,100108.69
2022-10-14T12:17:52.269Z,100105.28
2022-10-14T12:22:56.319Z,100095.91
2022-10-14T12:27:58.417Z,100093.41
2022-10-14T12:33:09.492Z,100081.75
2022-10-14T12:38:14.787Z,100089.91
2022-10-14T12:43:26.314Z,100077.31
2022-10-14T12:48:33.220Z,100073.41
2022-10-14T12:53:36.315Z,100075.06
2022-10-14T12:58:50.624Z,100089.50
2022-10-14T13:09:13.026Z,100098.31
2022-10-14T13:14:25.975Z,100088.56
2022-10-14T13:19:33.344Z,100092.22
2022-10-14T13:24:43.914Z,100084.25
2022-10-14T13:30:03.722Z,100065.63
2022-10-14T13:35:17.602Z,100053.56
2022-10-14T13:40:21.047Z,100033.66
2022-10-14T13:45:32.375Z,100027.09
2022-10-14T13:50:38.006Z,100027.66
2022-10-14T13:55:54.680Z,100014.84
2022-10-14T14:00:59.364Z,99993.34
2022-10-14T14:06:02.040Z,100011.63
2022-10-14T14:11:22.769Z,100008.84
2022-10-14T14:16:29.196Z,100004.97
2022-10-14T14:21:31.052Z,100017.13
2022-10-14T14:26:35.558Z,99998.88
2022-10-14T14:32:04.900Z,99995.28
2022-10-14T14:37:16.620Z,99996.69
2022-10-14T14:42:25.808Z,100003.59
2022-10-14T14:47:29.233Z,100011.88
2022-10-14T14:52:31.240Z,99999.44
2022-10-14T14:57:32.863Z,99986.69
2022-10-14T15:02:35.020Z,99993.34
2022-10-14T15:07:37.020Z,99983.94
2022-10-14T15:12:41.979Z,99973.41
2022-10-14T15:17:47.635Z,99970.63
2022-10-14T15:22:49.886Z,99963.66
2022-10-14T15:27:53.033Z,99954.25
2022-10-14T15:32:57.776Z,99963.97
2022-10-14T15:37:59.372Z,99960.13
2022-10-14T15:43:01.099Z,99960.72
2022-10-14T15:48:06.593Z,99967.94
2022-10-14T15:53:09.190Z,99959.66
2022-10-14T15:58:10.704Z,99953.25
2022-10-14T16:03:12.379Z,99946.91
2022-10-14T16:08:18.087Z,99941.34
2022-10-14T16:13:20.005Z,99919.81
2022-10-14T16:18:23.283Z,99898.81
2022-10-14T16:23:29.744Z,99905.69
2022-10-14T16:28:34.948Z,99901.78
2022-10-14T16:33:38.282Z,99903.97
2022-10-14T16:38:45.008Z,99901.50
2022-10-14T16:43:47.584Z,99893.19
2022-10-14T16:48:50.865Z,99888.19
2022-10-14T16:53:52.380Z,99884.59
2022-10-14T16:58:53.928Z,99860.88
2022-10-14T17:03:57.137Z,99871.09
2022-10-14T17:08:58.851Z,99893.16
2022-10-14T17:14:01.288Z,99894.50
2022-10-14T17:19:02.867Z,99901.69
2022-10-14T17:24:04.899Z,99906.91
2022-10-14T17:29:06.477Z,99907.47
2022-10-14T17:34:08.081Z,99891.19
2022-10-14T17:39:18.710Z,99898.13
2022-10-14T17:44:25.892Z,99900.31
2022-10-14T17:49:27.785Z,99903.91
2022-10-14T17:54:32.370Z,99900.31
2022-10-14T17:59:34.827Z,99904.19
2022-10-14T18:04:37.457Z,99909.72
2022-10-14T18:09:39.065Z,99918.50
2022-10-14T18:14:41.267Z,99909.91
2022-10-14T18:19:45.067Z,99891.97
2022-10-14T18:24:49.995Z,99883.69
2022-10-14T18:29:51.713Z,99869.03
2022-10-14T18:34:53.239Z,99869.28
2022-10-14T18:39:54.862Z,99859.59
2022-10-14T18:44:56.508Z,99849.59
2022-10-14T18:49:59.595Z,99853.13
2022-10-14T18:55:01.209Z,99838.75
2022-10-14T19:00:03.471Z,99837.53
2022-10-14T19:05:05.420Z,99826.91
2022-10-14T19:10:07.310Z,99816.34
2022-10-14T19:15:10.954Z,99807.75
2022-10-14T19:20:12.488Z,99801.09
2022-10-14T19:25:16.498Z,99802.44
2022-10-14T19:30:18.117Z,99795.28
2022-10-14T19:35:21.700Z,99789.72
2022-10-14T19:40:23.816Z,99780.88
2022-10-14T19:45:25.451Z,99774.31
2022-10-14T19:50:26.971Z,99762.19
2022-10-14T19:55:28.590Z,99763.03
2022-10-14T20:00:30.252Z,99764.38
2022-10-14T20:05:31.816Z,99763.28
2022-10-14T20:10:33.393Z,99753.94
2022-10-14T20:15:34.929Z,99750.13
2022-10-14T20:20:40.009Z,99749.31
2022-10-14T20:25:41.751Z,99749.63
2022-10-14T20:30:43.721Z,99744.38
2022-10-14T20:35:45.400Z,99735.03
2022-10-14T20:40:46.934Z,99740.84
2022-10-14T20:45:48.503Z,99724.84
2022-10-14T20:50:50.047Z,99732.84
2022-10-14T20:55:52.109Z,99720.47
2022-10-14T21:00:53.656Z,99713.59
2022-10-14T21:05:55.249Z,99709.78
2022-10-14T21:10:58.470Z,99699.31
2022-10-14T21:15:59.989Z,99691.06
2022-10-14T21:21:02.080Z,99692.13
2022-10-14T21:26:03.635Z,99680.31
2022-10-14T21:31:07.574Z,99677.31
2022-10-14T21:36:14.535Z,99671.00
2022-10-14T21:41:16.127Z,99666.88
2022-10-14T21:46:18.076Z,99663.88
2022-10-14T21:51:19.625Z,99668.25
2022-10-14T21:56:21.431Z,99664.44
2022-10-14T22:01:26.951Z,99660.56
2022-10-14T22:06:28.636Z,99654.78
2022-10-14T22:11:32.884Z,99652.88
2022-10-14T22:16:35.465Z,99649.03
2022-10-14T22:21:39.870Z,99638.56
2022-10-14T22:26:41.845Z,99635.53
2022-10-14T22:31:44.415Z,99640.78
2022-10-14T22:36:46.094Z,99636.09
2022-10-14T22:41:47.694Z,99627.03
2022-10-14T22:46:49.291Z,99630.31
2022-10-14T22:51:53.234Z,99617.94
2022-10-14T22:56:57.512Z,99624.56
2022-10-14T23:01:59.102Z,99622.66
2022-10-14T23:07:04.466Z,99616.56
2022-10-14T23:12:08.491Z,99617.97
2022-10-14T23:17:10.090Z,99610.81
2022-10-14T23:22:11.698Z,99613.03
2022-10-14T23:27:13.298Z,99619.94
2022-10-14T23:32:14.901Z,99619.38
2022-10-14T23:37:16.475Z,99621.59
2022-10-14T23:42:18.248Z,99608.94
2022-10-14T23:47:19.826Z,99611.13
2022-10-14T23:52:21.389Z,99613.34
2022-10-14T23:57:25.644Z,99627.16
